Sandy Hook Park, Washington
Current Conditions -  °F | °C
As of 1:55 AM on Sunday 23 Nov 2014 (Local Time) from KPWT Reporting Station
Overcast Overcast  
Wind Chill: 40°   Ceiling: 400
Heat Index: 45°   Visibility: 10mi
Dew Point: 45°   Wind: 9mph
Humidity: 100%   Direction: 200°SSW
Pressure: 30.16"   Gusts: NA
Location:  47.7571°N, 122.623°W
Report Text: KPWT 230955Z AUTO 20008KT 10SM BKN004 OVC012 07/07 A3016 RMK AO1 P0002
Loading
Personal Weather Stations






























Interactive Weather Map New forecast layout! Learn more

10-Day Weather Forecast

Advertisements
Track Severe Weather on mobile